createdAt,value
2016-05-27T00:00:13.434Z,1004.5
2016-05-27T00:01:13.452Z,1004.5
2016-05-27T00:02:13.470Z,1004.44
2016-05-27T00:03:13.504Z,1004.45
2016-05-27T00:04:13.523Z,1004.45
2016-05-27T00:05:13.572Z,1004.45
2016-05-27T00:06:13.575Z,1004.44
2016-05-27T00:07:13.609Z,1004.43
2016-05-27T00:08:13.627Z,1004.42
2016-05-27T00:09:13.661Z,1004.38
2016-05-27T00:10:13.680Z,1004.41
2016-05-27T00:11:13.697Z,1004.42
2016-05-27T00:12:13.747Z,1004.42
2016-05-27T00:13:13.749Z,1004.45
2016-05-27T00:14:13.784Z,1004.41
2016-05-27T00:15:13.802Z,1004.42
2016-05-27T00:16:13.835Z,1004.41
2016-05-27T00:17:13.854Z,1004.41
2016-05-27T00:18:13.873Z,1004.41
2016-05-27T00:19:13.907Z,1004.42
2016-05-27T00:20:13.925Z,1004.38
2016-05-27T00:21:13.943Z,1004.38
2016-05-27T00:22:13.976Z,1004.39
2016-05-27T00:23:13.995Z,1004.36
2016-05-27T00:24:14.030Z,1004.39
2016-05-27T00:25:14.048Z,1004.38
2016-05-27T00:26:14.066Z,1004.39
2016-05-27T00:27:14.100Z,1004.37
2016-05-27T00:28:14.118Z,1004.39
2016-05-27T00:29:14.152Z,1004.41
2016-05-27T00:30:14.170Z,1004.42
2016-05-27T00:31:14.204Z,1004.43
2016-05-27T00:32:14.223Z,1004.41
2016-05-27T00:33:14.241Z,1004.41
2016-05-27T00:34:14.275Z,1004.39
2016-05-27T00:35:14.308Z,1004.38
2016-05-27T00:36:14.327Z,1004.41
2016-05-27T00:37:14.345Z,1004.41
2016-05-27T00:38:14.380Z,1004.39
2016-05-27T00:39:14.397Z,1004.38
2016-05-27T00:40:14.416Z,1004.37
2016-05-27T00:41:14.435Z,1004.38
2016-05-27T00:42:14.468Z,1004.36
2016-05-27T00:43:14.486Z,1004.36
2016-05-27T00:44:14.521Z,1004.33
2016-05-27T00:45:14.539Z,1004.36
2016-05-27T00:46:14.573Z,1004.35
2016-05-27T00:47:14.591Z,1004.35
2016-05-27T00:48:14.609Z,1004.33
2016-05-27T00:49:14.660Z,1004.32
2016-05-27T00:50:14.662Z,1004.34
2016-05-27T00:51:14.696Z,1004.38
2016-05-27T00:52:14.714Z,1004.36
2016-05-27T00:53:14.732Z,1004.36
2016-05-27T00:54:14.766Z,1004.32
2016-05-27T00:55:14.784Z,1004.34
2016-05-27T00:56:14.803Z,1004.31
2016-05-27T00:57:14.946Z,1004.33
2016-05-27T00:58:14.855Z,1004.33
2016-05-27T00:59:14.890Z,1004.3
2016-05-27T01:00:14.907Z,1004.28
2016-05-27T01:01:14.941Z,1004.29
2016-05-27T01:02:14.960Z,1004.3
2016-05-27T01:03:14.978Z,1004.28
2016-05-27T01:04:14.997Z,1004.27
2016-05-27T01:05:15.030Z,1004.25
2016-05-27T01:06:15.095Z,1004.26
2016-05-27T01:07:15.083Z,1004.24
2016-05-27T01:08:15.100Z,1004.27
2016-05-27T01:09:15.135Z,1004.33
2016-05-27T01:10:15.152Z,1004.31
2016-05-27T01:11:15.171Z,1004.3
2016-05-27T01:12:15.189Z,1004.29
2016-05-27T01:13:15.224Z,1004.29
2016-05-27T01:14:15.258Z,1004.31
2016-05-27T01:15:15.276Z,1004.3
2016-05-27T01:16:15.294Z,1004.27
2016-05-27T01:17:15.328Z,1004.26
2016-05-27T01:18:15.456Z,1004.25
2016-05-27T01:19:15.380Z,1004.27
2016-05-27T01:20:15.399Z,1004.3
2016-05-27T01:21:15.417Z,1004.28
2016-05-27T01:22:15.452Z,1004.28
2016-05-27T01:23:15.468Z,1004.28
2016-05-27T01:24:15.487Z,1004.26
2016-05-27T01:25:15.521Z,1004.29
2016-05-27T01:26:15.634Z,1004.31
2016-05-27T01:27:15.574Z,1004.31
2016-05-27T01:28:15.593Z,1004.31
2016-05-27T01:29:15.610Z,1004.31
2016-05-27T01:30:15.629Z,1004.32
2016-05-27T01:31:15.662Z,1004.31
2016-05-27T01:32:15.790Z,1004.35
2016-05-27T01:33:15.715Z,1004.32
2016-05-27T01:34:15.734Z,1004.36
2016-05-27T01:35:15.751Z,1004.36
2016-05-27T01:36:15.785Z,1004.36
2016-05-27T01:37:15.804Z,1004.34
2016-05-27T01:38:15.838Z,1004.34
2016-05-27T01:39:15.856Z,1004.33
2016-05-27T01:40:15.889Z,1004.27
2016-05-27T01:41:15.908Z,1004.25
2016-05-27T01:42:15.927Z,1004.24
2016-05-27T01:43:15.945Z,1004.23
2016-05-27T01:44:15.979Z,1004.22
2016-05-27T01:45:15.997Z,1004.22
2016-05-27T01:46:16.031Z,1004.24
2016-05-27T01:47:16.049Z,1004.24
2016-05-27T01:48:16.068Z,1004.25
2016-05-27T01:49:16.088Z,1004.28
2016-05-27T01:50:16.142Z,1004.28
2016-05-27T01:51:16.179Z,1004.29
2016-05-27T01:52:16.232Z,1004.26
2016-05-27T01:53:16.286Z,1004.27
2016-05-27T01:54:16.306Z,1004.25
2016-05-27T01:55:16.347Z,1004.23
2016-05-27T01:56:16.372Z,1004.23
2016-05-27T01:57:16.397Z,1004.24
2016-05-27T01:58:16.438Z,1004.23
2016-05-27T01:59:16.462Z,1004.22
2016-05-27T02:00:16.484Z,1004.2
2016-05-27T02:01:16.521Z,1004.15
2016-05-27T02:02:16.541Z,1004.19
2016-05-27T02:03:16.562Z,1004.19
2016-05-27T02:04:16.598Z,1004.21
2016-05-27T02:05:16.617Z,1004.21
2016-05-27T02:06:16.652Z,1004.19
2016-05-27T02:07:16.672Z,1004.23
2016-05-27T02:08:16.692Z,1004.25
2016-05-27T02:09:16.725Z,1004.25
2016-05-27T02:10:16.744Z,1004.29
2016-05-27T02:11:16.762Z,1004.29
2016-05-27T02:12:16.797Z,1004.28
2016-05-27T02:13:16.816Z,1004.28
2016-05-27T02:14:16.834Z,1004.29
2016-05-27T02:15:16.868Z,1004.26
2016-05-27T02:16:16.886Z,1004.28
2016-05-27T02:17:16.921Z,1004.25
2016-05-27T02:18:16.939Z,1004.26
2016-05-27T02:19:16.958Z,1004.28
2016-05-27T02:20:16.976Z,1004.26
2016-05-27T02:21:17.024Z,1004.27
2016-05-27T02:22:17.027Z,1004.29
2016-05-27T02:23:17.046Z,1004.3
2016-05-27T02:24:17.080Z,1004.24
2016-05-27T02:25:17.114Z,1004.27
2016-05-27T02:26:17.117Z,1004.23
2016-05-27T02:27:17.150Z,1004.26
2016-05-27T02:28:17.184Z,1004.28
2016-05-27T02:29:17.187Z,1004.28
2016-05-27T02:30:17.221Z,1004.31
2016-05-27T02:31:17.239Z,1004.32
2016-05-27T02:32:17.258Z,1004.35
2016-05-27T02:33:17.291Z,1004.35
2016-05-27T02:34:17.310Z,1004.39
2016-05-27T02:35:17.328Z,1004.37
2016-05-27T02:36:17.362Z,1004.34
2016-05-27T02:37:17.380Z,1004.33
2016-05-27T02:38:17.415Z,1004.31
2016-05-27T02:39:17.433Z,1004.31
2016-05-27T02:40:17.450Z,1004.26
2016-05-27T02:41:17.485Z,1004.27
2016-05-27T02:42:17.503Z,1004.25
2016-05-27T02:43:17.538Z,1004.31
2016-05-27T02:44:17.556Z,1004.25
2016-05-27T02:45:17.574Z,1004.31
2016-05-27T02:46:17.591Z,1004.29
2016-05-27T02:47:17.626Z,1004.28
2016-05-27T02:48:17.644Z,1004.31
2016-05-27T02:49:17.663Z,1004.3
2016-05-27T02:50:17.697Z,1004.3
2016-05-27T02:51:17.715Z,1004.29
2016-05-27T02:52:17.733Z,1004.32
2016-05-27T02:53:17.768Z,1004.36
2016-05-27T02:54:17.785Z,1004.39
2016-05-27T02:55:17.804Z,1004.41
2016-05-27T02:56:17.823Z,1004.43
2016-05-27T02:57:17.856Z,1004.51
2016-05-27T02:58:17.890Z,1004.52
2016-05-27T02:59:17.909Z,1004.55
2016-05-27T03:00:17.927Z,1004.6
2016-05-27T03:01:17.962Z,1004.59
2016-05-27T03:02:17.964Z,1004.56
2016-05-27T03:03:17.998Z,1004.55
2016-05-27T03:04:18.015Z,1004.53
2016-05-27T03:05:18.050Z,1004.52
2016-05-27T03:06:18.068Z,1004.51
2016-05-27T03:07:18.103Z,1004.47
2016-05-27T03:08:18.120Z,1004.5
2016-05-27T03:09:18.154Z,1004.44
2016-05-27T03:10:18.157Z,1004.5
2016-05-27T03:11:18.191Z,1004.49
2016-05-27T03:12:18.209Z,1004.48
2016-05-27T03:13:18.227Z,1004.46
2016-05-27T03:14:18.262Z,1004.47
2016-05-27T03:15:18.280Z,1004.51
2016-05-27T03:16:18.298Z,1004.48
2016-05-27T03:17:18.332Z,1004.45
2016-05-27T03:18:18.350Z,1004.48
2016-05-27T03:19:18.369Z,1004.52
2016-05-27T03:20:18.388Z,1004.54
2016-05-27T03:21:18.421Z,1004.55
2016-05-27T03:22:18.439Z,1004.53
2016-05-27T03:23:18.458Z,1004.54
2016-05-27T03:24:18.491Z,1004.55
2016-05-27T03:25:18.541Z,1004.55
2016-05-27T03:26:18.528Z,1004.62
2016-05-27T03:27:18.562Z,1004.61
2016-05-27T03:28:18.580Z,1004.64
2016-05-27T03:29:18.599Z,1004.62
2016-05-27T03:30:18.632Z,1004.63
2016-05-27T03:31:18.651Z,1004.63
2016-05-27T03:32:18.670Z,1004.66
2016-05-27T03:33:19.218Z,1004.64
2016-05-27T03:34:18.721Z,1004.63
2016-05-27T03:35:18.740Z,1004.58
2016-05-27T03:36:18.773Z,1004.6
2016-05-27T03:37:18.792Z,1004.58
2016-05-27T03:38:18.811Z,1004.59
2016-05-27T03:39:18.844Z,1004.58
2016-05-27T03:40:18.862Z,1004.54
2016-05-27T03:41:18.881Z,1004.55
2016-05-27T03:42:18.900Z,1004.54
2016-05-27T03:43:18.933Z,1004.49
2016-05-27T03:44:18.952Z,1004.46
2016-05-27T03:45:18.970Z,1004.46
2016-05-27T03:46:19.003Z,1004.46
2016-05-27T03:47:19.022Z,1004.42
2016-05-27T03:48:19.041Z,1004.43
2016-05-27T03:49:19.074Z,1004.48
2016-05-27T03:50:19.093Z,1004.5
2016-05-27T03:51:19.111Z,1004.47
2016-05-27T03:52:19.144Z,1004.52
2016-05-27T03:53:19.163Z,1004.5
2016-05-27T03:54:19.197Z,1004.53
2016-05-27T03:55:19.215Z,1004.49
2016-05-27T03:56:19.234Z,1004.55
2016-05-27T03:57:19.252Z,1004.54
2016-05-27T03:58:19.285Z,1004.54
2016-05-27T03:59:19.304Z,1004.55
2016-05-27T04:00:19.323Z,1004.59
2016-05-27T04:01:19.356Z,1004.54
2016-05-27T04:02:19.375Z,1004.58
2016-05-27T04:03:19.393Z,1004.52
2016-05-27T04:04:19.427Z,1004.54
2016-05-27T04:05:19.445Z,1004.54
2016-05-27T04:06:19.464Z,1004.53
2016-05-27T04:07:19.482Z,1004.55
2016-05-27T04:08:19.516Z,1004.56
2016-05-27T04:09:19.534Z,1004.53
2016-05-27T04:10:19.553Z,1004.49
2016-05-27T04:11:19.587Z,1004.48
2016-05-27T04:12:19.605Z,1004.45
2016-05-27T04:13:19.623Z,1004.42
2016-05-27T04:14:19.657Z,1004.42
2016-05-27T04:15:19.675Z,1004.38
2016-05-27T04:16:19.694Z,1004.34
2016-05-27T04:17:19.728Z,1004.35
2016-05-27T04:18:20.261Z,1004.29
2016-05-27T04:19:19.764Z,1004.27
2016-05-27T04:20:19.783Z,1004.24
2016-05-27T04:21:19.816Z,1004.23
2016-05-27T04:22:19.835Z,1004.21
2016-05-27T04:23:19.900Z,1004.24
2016-05-27T04:24:19.887Z,1004.19
2016-05-27T04:25:19.906Z,1004.19
2016-05-27T04:26:19.924Z,1004.17
2016-05-27T04:27:19.957Z,1004.16
2016-05-27T04:28:19.976Z,1004.15
2016-05-27T04:29:19.994Z,1004.15
2016-05-27T04:30:20.028Z,1004.12
2016-05-27T04:31:20.046Z,1004.11
2016-05-27T04:32:20.065Z,1004.14
2016-05-27T04:33:20.083Z,1004.13
2016-05-27T04:34:20.117Z,1004.17
2016-05-27T04:35:20.135Z,1004.18
2016-05-27T04:36:20.169Z,1004.23
2016-05-27T04:37:20.187Z,1004.25
2016-05-27T04:38:20.206Z,1004.24
2016-05-27T04:39:20.240Z,1004.27
2016-05-27T04:40:20.258Z,1004.28
2016-05-27T04:41:20.276Z,1004.34
2016-05-27T04:42:20.295Z,1004.31
2016-05-27T04:43:20.329Z,1004.35
2016-05-27T04:44:20.347Z,1004.37
2016-05-27T04:45:20.366Z,1004.37
2016-05-27T04:46:20.415Z,1004.35
2016-05-27T04:47:20.417Z,1004.42
2016-05-27T04:48:20.733Z,1004.38
2016-05-27T04:49:20.469Z,1004.4
2016-05-27T04:50:20.488Z,1004.41
2016-05-27T04:51:20.507Z,1004.4
2016-05-27T04:52:20.525Z,1004.43
2016-05-27T04:53:20.558Z,1004.49
2016-05-27T04:54:20.577Z,1004.55
2016-05-27T04:55:20.596Z,1004.58
2016-05-27T04:56:20.629Z,1004.65
2016-05-27T04:57:20.648Z,1004.7
2016-05-27T04:58:20.666Z,1004.72
2016-05-27T04:59:20.700Z,1004.73
2016-05-27T05:00:20.718Z,1004.72
2016-05-27T05:01:20.752Z,1004.73
2016-05-27T05:02:20.770Z,1004.72
2016-05-27T05:03:20.789Z,1004.71
2016-05-27T05:04:21.338Z,1004.71
2016-05-27T05:05:20.840Z,1004.7
2016-05-27T05:06:20.859Z,1004.7
2016-05-27T05:07:20.893Z,1004.69
2016-05-27T05:08:22.318Z,1004.68
2016-05-27T05:09:20.930Z,1004.75
2016-05-27T05:10:20.948Z,1004.73
2016-05-27T05:11:20.982Z,1004.76
2016-05-27T05:12:21.001Z,1004.77
2016-05-27T05:13:21.035Z,1004.79
2016-05-27T05:14:21.037Z,1004.79
2016-05-27T05:15:21.072Z,1004.83
2016-05-27T05:16:21.089Z,1004.81
2016-05-27T05:17:21.108Z,1004.8
2016-05-27T05:18:21.142Z,1004.83
2016-05-27T05:19:21.175Z,1004.83
2016-05-27T05:20:21.178Z,1004.87
2016-05-27T05:21:21.212Z,1004.88
2016-05-27T05:22:21.230Z,1004.87
2016-05-27T05:23:21.264Z,1004.83
2016-05-27T05:24:21.283Z,1004.87
2016-05-27T05:25:21.316Z,1004.86
2016-05-27T05:26:21.319Z,1004.86
2016-05-27T05:27:21.354Z,1004.84
2016-05-27T05:28:21.372Z,1004.82
2016-05-27T05:29:21.406Z,1004.75
2016-05-27T05:30:21.423Z,1004.75
2016-05-27T05:31:21.443Z,1004.73
2016-05-27T05:32:21.461Z,1004.71
2016-05-27T05:33:21.510Z,1004.7
2016-05-27T05:34:21.513Z,1004.7
2016-05-27T05:35:21.532Z,1004.68
2016-05-27T05:36:21.565Z,1004.66
2016-05-27T05:37:21.584Z,1004.67
2016-05-27T05:38:21.602Z,1004.67
2016-05-27T05:39:21.620Z,1004.67
2016-05-27T05:40:21.654Z,1004.69
2016-05-27T05:41:21.672Z,1004.69
2016-05-27T05:42:21.707Z,1004.73
2016-05-27T05:43:21.740Z,1004.73
2016-05-27T05:44:21.742Z,1004.72
2016-05-27T05:45:21.761Z,1004.73
2016-05-27T05:46:21.795Z,1004.74
2016-05-27T05:47:21.813Z,1004.75
2016-05-27T05:48:21.847Z,1004.76
2016-05-27T05:49:21.866Z,1004.76
2016-05-27T05:50:21.884Z,1004.75
2016-05-27T05:51:21.918Z,1004.75
2016-05-27T05:52:21.936Z,1004.72
2016-05-27T05:53:21.954Z,1004.73
2016-05-27T05:54:21.989Z,1004.74
2016-05-27T05:55:22.007Z,1004.74
2016-05-27T05:56:22.025Z,1004.72
2016-05-27T05:57:22.059Z,1004.77
2016-05-27T05:58:22.077Z,1004.79
2016-05-27T05:59:22.096Z,1004.81
2016-05-27T06:00:22.130Z,1004.84
2016-05-27T06:01:22.149Z,1004.91
2016-05-27T06:02:22.166Z,1004.94
2016-05-27T06:03:22.201Z,1004.94
2016-05-27T06:04:22.218Z,1004.93
2016-05-27T06:05:22.252Z,1004.88
2016-05-27T06:06:22.271Z,1004.93
2016-05-27T06:07:22.290Z,1004.89
2016-05-27T06:08:22.323Z,1004.89
2016-05-27T06:09:22.342Z,1004.91
2016-05-27T06:10:22.391Z,1004.93
2016-05-27T06:11:22.393Z,1004.97
2016-05-27T06:12:22.411Z,1004.99
2016-05-27T06:13:22.431Z,1005.03
2016-05-27T06:14:22.464Z,1005.04
2016-05-27T06:15:22.483Z,1005.05
2016-05-27T06:16:22.500Z,1005.04
2016-05-27T06:17:22.535Z,1005.06
2016-05-27T06:18:22.553Z,1005.07
2016-05-27T06:19:22.571Z,1005.03
2016-05-27T06:20:22.606Z,1005.03
2016-05-27T06:21:22.624Z,1005.02
2016-05-27T06:22:22.658Z,1005.01
2016-05-27T06:23:22.675Z,1005.05
2016-05-27T06:24:22.694Z,1005.09
2016-05-27T06:25:22.728Z,1005.13
2016-05-27T06:26:22.746Z,1005.1
2016-05-27T06:27:22.780Z,1005.11
2016-05-27T06:28:22.893Z,1005.17
2016-05-27T06:29:22.833Z,1005.14
2016-05-27T06:30:22.851Z,1005.15
2016-05-27T06:31:22.869Z,1005.14
2016-05-27T06:32:22.888Z,1005.13
2016-05-27T06:33:23.468Z,1005.13
2016-05-27T06:34:22.940Z,1005.13
2016-05-27T06:35:22.958Z,1005.13
2016-05-27T06:36:22.992Z,1005.07
2016-05-27T06:37:23.026Z,1005.1
2016-05-27T06:38:23.029Z,1005.07
2016-05-27T06:39:23.062Z,1005.06
2016-05-27T06:40:23.097Z,1005.08
2016-05-27T06:41:23.115Z,1005.08
2016-05-27T06:42:23.133Z,1005.1
2016-05-27T06:43:23.152Z,1005.11
2016-05-27T06:44:23.186Z,1005.11
2016-05-27T06:45:23.203Z,1005.12
2016-05-27T06:46:23.237Z,1005.11
2016-05-27T06:47:23.256Z,1005.13
2016-05-27T06:48:23.275Z,1005.06
2016-05-27T06:49:23.308Z,1005.07
2016-05-27T06:50:23.327Z,1005.05
2016-05-27T06:51:23.361Z,1005.02
2016-05-27T06:52:23.488Z,1005.04
2016-05-27T06:53:23.491Z,1005.02
2016-05-27T06:54:23.431Z,1005.02
2016-05-27T06:55:23.449Z,1005.03
2016-05-27T06:56:23.484Z,1005
2016-05-27T06:57:23.502Z,1005.03
2016-05-27T06:58:23.520Z,1005
2016-05-27T06:59:24.429Z,1004.97
2016-05-27T07:00:23.571Z,1005
2016-05-27T07:01:23.607Z,1004.96
2016-05-27T07:02:23.625Z,1004.97
2016-05-27T07:03:23.643Z,1005
2016-05-27T07:04:23.676Z,1005
2016-05-27T07:05:23.696Z,1004.99
2016-05-27T07:06:23.729Z,1004.99
2016-05-27T07:07:23.747Z,1005
2016-05-27T07:08:23.766Z,1005.01
2016-05-27T07:09:25.143Z,1004.98
2016-05-27T07:10:23.818Z,1004.97
2016-05-27T07:11:23.851Z,1004.97
2016-05-27T07:12:23.870Z,1004.96
2016-05-27T07:13:23.889Z,1004.96
2016-05-27T07:14:23.922Z,1004.95
2016-05-27T07:15:23.940Z,1004.92
2016-05-27T07:16:23.975Z,1004.93
2016-05-27T07:17:23.992Z,1004.87
2016-05-27T07:18:24.028Z,1004.88
2016-05-27T07:19:24.045Z,1004.9
2016-05-27T07:20:24.079Z,1004.89
2016-05-27T07:21:24.097Z,1004.88
2016-05-27T07:22:24.132Z,1004.92
2016-05-27T07:23:24.150Z,1004.91
2016-05-27T07:24:24.168Z,1004.9
2016-05-27T07:25:24.202Z,1004.91
2016-05-27T07:26:24.220Z,1004.85
2016-05-27T07:27:24.255Z,1004.9
2016-05-27T07:28:24.272Z,1004.91
2016-05-27T07:29:24.291Z,1004.9
2016-05-27T07:30:24.325Z,1004.91
2016-05-27T07:31:24.344Z,1004.93
2016-05-27T07:32:24.377Z,1004.96
2016-05-27T07:33:24.395Z,1004.92
2016-05-27T07:34:24.430Z,1004.93
2016-05-27T07:35:24.463Z,1004.88
2016-05-27T07:36:24.482Z,1004.82
2016-05-27T07:37:24.500Z,1004.81
2016-05-27T07:38:24.534Z,1004.81
2016-05-27T07:39:24.551Z,1004.83
2016-05-27T07:40:24.587Z,1004.8
2016-05-27T07:41:24.620Z,1004.8
2016-05-27T07:42:24.623Z,1004.82
2016-05-27T07:43:24.656Z,1004.86
2016-05-27T07:44:26.754Z,1004.84
2016-05-27T07:45:24.708Z,1004.85
2016-05-27T07:46:24.728Z,1004.84
2016-05-27T07:47:24.762Z,1004.79
2016-05-27T07:48:24.779Z,1004.82
2016-05-27T07:49:24.844Z,1004.83
2016-05-27T07:50:24.832Z,1004.82
2016-05-27T07:51:24.866Z,1004.87
2016-05-27T07:52:24.883Z,1004.89
2016-05-27T07:53:24.917Z,1004.89
2016-05-27T07:54:28.670Z,1004.89
2016-05-27T07:55:24.969Z,1004.94
2016-05-27T07:56:24.988Z,1004.91
2016-05-27T07:57:25.022Z,1004.94
2016-05-27T07:58:25.041Z,1004.94
2016-05-27T07:59:25.074Z,1004.92
2016-05-27T08:00:25.094Z,1004.89
2016-05-27T08:01:25.127Z,1004.93
2016-05-27T08:02:25.145Z,1004.91
2016-05-27T08:03:25.179Z,1004.92
2016-05-27T08:04:28.276Z,1004.91
2016-05-27T08:05:25.232Z,1004.91
2016-05-27T08:06:25.249Z,1004.92
2016-05-27T08:07:25.284Z,1004.9
2016-05-27T08:08:25.301Z,1004.89
2016-05-27T08:09:28.118Z,1004.91
2016-05-27T08:10:25.370Z,1004.91
2016-05-27T08:11:25.388Z,1004.92
2016-05-27T08:12:25.422Z,1004.92
2016-05-27T08:13:25.441Z,1004.94
2016-05-27T08:14:27.240Z,1004.94
2016-05-27T08:15:25.493Z,1005
2016-05-27T08:16:25.526Z,1005.02
2016-05-27T08:17:25.545Z,1005.03
2016-05-27T08:18:25.579Z,1005.05
2016-05-27T08:19:27.612Z,1005.01
2016-05-27T08:20:25.631Z,1005.03
2016-05-27T08:21:25.650Z,1005.03
2016-05-27T08:22:25.683Z,1005.02
2016-05-27T08:23:25.703Z,1005.04
2016-05-27T08:24:25.736Z,1005.03
2016-05-27T08:25:25.753Z,1005.04
2016-05-27T08:26:25.788Z,1005.05
2016-05-27T08:27:25.806Z,1005.03
2016-05-27T08:28:25.841Z,1005.01
2016-05-27T08:29:25.874Z,1005.02
2016-05-27T08:30:25.892Z,1005.04
2016-05-27T08:31:25.927Z,1005.07
2016-05-27T08:32:25.944Z,1005.08
2016-05-27T08:33:25.979Z,1005.08
2016-05-27T08:34:29.888Z,1005.06
2016-05-27T08:35:26.031Z,1005.08
2016-05-27T08:36:26.065Z,1005.03
2016-05-27T08:37:26.083Z,1005.07
2016-05-27T08:38:26.117Z,1005.06
2016-05-27T08:39:26.135Z,1005.08
2016-05-27T08:40:26.169Z,1005.04
2016-05-27T08:41:26.188Z,1005.08
2016-05-27T08:42:26.221Z,1005.01
2016-05-27T08:43:26.240Z,1005.03
2016-05-27T08:44:26.274Z,1004.97
2016-05-27T08:45:26.292Z,1004.96
2016-05-27T08:46:26.326Z,1004.95
2016-05-27T08:47:26.360Z,1004.95
2016-05-27T08:48:26.378Z,1004.94
2016-05-27T08:49:26.412Z,1004.95
2016-05-27T08:50:26.431Z,1004.96
2016-05-27T08:51:26.465Z,1004.93
2016-05-27T08:52:26.499Z,1004.93
2016-05-27T08:53:26.517Z,1004.93
2016-05-27T08:54:28.145Z,1004.88
2016-05-27T08:55:26.569Z,1004.9
2016-05-27T08:56:26.603Z,1004.89
2016-05-27T08:57:26.622Z,1004.87
2016-05-27T08:58:26.655Z,1004.87
2016-05-27T08:59:26.689Z,1004.85
2016-05-27T09:00:26.707Z,1004.86
2016-05-27T09:01:26.742Z,1004.83
2016-05-27T09:02:26.760Z,1004.82
2016-05-27T09:03:26.794Z,1004.81
2016-05-27T09:04:28.141Z,1004.8
2016-05-27T09:05:26.846Z,1004.83
2016-05-27T09:06:26.880Z,1004.81
2016-05-27T09:07:26.899Z,1004.83
2016-05-27T09:08:26.932Z,1004.82
2016-05-27T09:09:26.951Z,1004.82
2016-05-27T09:10:26.985Z,1004.8
2016-05-27T09:11:27.018Z,1004.84
2016-05-27T09:12:27.037Z,1004.82
2016-05-27T09:13:27.086Z,1004.83
2016-05-27T09:14:27.090Z,1004.78
2016-05-27T09:15:27.138Z,1004.83
2016-05-27T09:16:27.156Z,1004.81
2016-05-27T09:17:27.175Z,1004.79
2016-05-27T09:18:27.210Z,1004.77
2016-05-27T09:19:27.228Z,1004.79
2016-05-27T09:20:27.261Z,1004.8
2016-05-27T09:21:27.295Z,1004.79
2016-05-27T09:22:27.313Z,1004.77
2016-05-27T09:23:27.348Z,1004.79
2016-05-27T09:24:27.820Z,1004.79
2016-05-27T09:25:27.400Z,1004.79
2016-05-27T09:26:27.434Z,1004.77
2016-05-27T09:27:27.452Z,1004.8
2016-05-27T09:28:27.486Z,1004.78
2016-05-27T09:29:27.520Z,1004.8
2016-05-27T09:30:27.538Z,1004.79
2016-05-27T09:31:27.572Z,1004.79
2016-05-27T09:32:27.591Z,1004.85
2016-05-27T09:33:27.624Z,1004.84
2016-05-27T09:34:27.658Z,1004.82
2016-05-27T09:35:27.692Z,1004.8
2016-05-27T09:36:27.711Z,1004.83
2016-05-27T09:37:27.729Z,1004.79
2016-05-27T09:38:27.763Z,1004.8
2016-05-27T09:39:27.797Z,1004.8
2016-05-27T09:40:27.815Z,1004.81
2016-05-27T09:41:28.162Z,1004.8
2016-05-27T09:42:27.883Z,1004.83
2016-05-27T09:43:27.901Z,1004.82
2016-05-27T09:44:29.716Z,1004.84
2016-05-27T09:45:27.954Z,1004.82
2016-05-27T09:46:27.987Z,1004.81
2016-05-27T09:47:28.021Z,1004.81
2016-05-27T09:48:28.040Z,1004.78
2016-05-27T09:49:28.073Z,1004.83
2016-05-27T09:50:28.092Z,1004.76
2016-05-27T09:51:28.126Z,1004.79
2016-05-27T09:52:28.159Z,1004.79
2016-05-27T09:53:28.178Z,1004.77
2016-05-27T09:54:28.212Z,1004.8
2016-05-27T09:55:28.246Z,1004.8
2016-05-27T09:56:28.264Z,1004.77
2016-05-27T09:57:28.298Z,1004.79
2016-05-27T09:58:28.332Z,1004.81
2016-05-27T09:59:28.351Z,1004.8
2016-05-27T10:00:28.384Z,1004.83
2016-05-27T10:01:28.419Z,1004.81
2016-05-27T10:02:28.436Z,1004.8
2016-05-27T10:03:28.471Z,1004.76
2016-05-27T10:04:28.504Z,1004.78
2016-05-27T10:05:28.523Z,1004.82
2016-05-27T10:06:28.558Z,1004.78
2016-05-27T10:07:28.591Z,1004.76
2016-05-27T10:08:28.609Z,1004.78
2016-05-27T10:09:28.643Z,1004.76
2016-05-27T10:10:28.660Z,1004.77
2016-05-27T10:11:28.710Z,1004.75
2016-05-27T10:12:28.746Z,1004.76
2016-05-27T10:13:28.763Z,1004.76
2016-05-27T10:14:28.782Z,1004.75
2016-05-27T10:15:28.815Z,1004.72
2016-05-27T10:16:28.849Z,1004.72
2016-05-27T10:17:28.868Z,1004.73
2016-05-27T10:18:28.902Z,1004.67
2016-05-27T10:19:29.826Z,1004.69
2016-05-27T10:20:28.954Z,1004.69
2016-05-27T10:21:29.003Z,1004.65
2016-05-27T10:22:29.022Z,1004.67
2016-05-27T10:23:29.056Z,1004.68
2016-05-27T10:24:29.074Z,1004.65
2016-05-27T10:25:29.108Z,1004.65
2016-05-27T10:26:29.142Z,1004.65
2016-05-27T10:27:29.176Z,1004.6
2016-05-27T10:28:29.194Z,1004.63
2016-05-27T10:29:29.228Z,1004.64
2016-05-27T10:30:29.247Z,1004.59
2016-05-27T10:31:29.280Z,1004.6
2016-05-27T10:32:29.314Z,1004.62
2016-05-27T10:33:29.333Z,1004.62
2016-05-27T10:34:29.835Z,1004.6
2016-05-27T10:35:29.400Z,1004.61
2016-05-27T10:36:29.435Z,1004.61
2016-05-27T10:37:29.452Z,1004.56
2016-05-27T10:38:29.487Z,1004.54
2016-05-27T10:39:29.521Z,1004.58
2016-05-27T10:40:29.554Z,1004.58
2016-05-27T10:41:29.574Z,1004.59
2016-05-27T10:42:29.607Z,1004.61
2016-05-27T10:43:29.641Z,1004.57
2016-05-27T10:44:29.660Z,1004.55
2016-05-27T10:45:29.693Z,1004.58
2016-05-27T10:46:29.743Z,1004.55
2016-05-27T10:47:29.760Z,1004.58
2016-05-27T10:48:29.795Z,1004.6
2016-05-27T10:49:29.812Z,1004.55
2016-05-27T10:50:29.847Z,1004.56
2016-05-27T10:51:29.882Z,1004.49
2016-05-27T10:52:29.915Z,1004.54
2016-05-27T10:53:29.933Z,1004.5
2016-05-27T10:54:29.967Z,1004.52
2016-05-27T10:55:30.048Z,1004.52
2016-05-27T10:56:30.060Z,1004.51
2016-05-27T10:57:30.105Z,1004.54
2016-05-27T10:58:30.164Z,1004.56
2016-05-27T10:59:30.224Z,1004.51
2016-05-27T11:00:30.284Z,1004.57
2016-05-27T11:01:30.311Z,1004.55
2016-05-27T11:02:30.355Z,1004.57
2016-05-27T11:03:30.398Z,1004.57
2016-05-27T11:04:31.003Z,1004.54
2016-05-27T11:05:30.469Z,1004.57
2016-05-27T11:06:30.506Z,1004.58
2016-05-27T11:07:30.543Z,1004.57
2016-05-27T11:08:30.581Z,1004.56
2016-05-27T11:09:30.602Z,1004.57
2016-05-27T11:10:30.640Z,1004.54
2016-05-27T11:11:30.675Z,1004.54
2016-05-27T11:12:30.710Z,1004.53
2016-05-27T11:13:30.729Z,1004.5
2016-05-27T11:14:30.765Z,1004.52
2016-05-27T11:15:30.800Z,1004.54
2016-05-27T11:16:30.834Z,1004.56
2016-05-27T11:17:30.869Z,1004.56
2016-05-27T11:18:30.886Z,1004.54
2016-05-27T11:19:31.062Z,1004.54
2016-05-27T11:20:30.956Z,1004.52
2016-05-27T11:21:30.974Z,1004.55
2016-05-27T11:22:31.024Z,1004.55
2016-05-27T11:23:31.043Z,1004.56
2016-05-27T11:24:31.077Z,1004.57
2016-05-27T11:25:31.097Z,1004.58
2016-05-27T11:26:31.130Z,1004.57
2016-05-27T11:27:31.164Z,1004.58
2016-05-27T11:28:31.213Z,1004.59
2016-05-27T11:29:31.216Z,1004.59
2016-05-27T11:30:31.374Z,1004.59
2016-05-27T11:31:31.284Z,1004.58
2016-05-27T11:32:31.396Z,1004.6
2016-05-27T11:33:31.429Z,1004.61
2016-05-27T11:34:31.433Z,1004.64
2016-05-27T11:35:31.451Z,1004.66
2016-05-27T11:36:31.453Z,1004.66
2016-05-27T11:37:31.472Z,1004.61
2016-05-27T11:38:31.584Z,1004.66
2016-05-27T11:39:31.634Z,1004.64
2016-05-27T11:40:31.559Z,1004.64
2016-05-27T11:41:31.654Z,1004.69
2016-05-27T11:42:31.689Z,1004.66
2016-05-27T11:43:31.692Z,1004.69
2016-05-27T11:44:31.709Z,1004.73
2016-05-27T11:45:31.712Z,1004.75
2016-05-27T11:46:31.731Z,1004.68
2016-05-27T11:47:31.764Z,1004.65
2016-05-27T11:48:31.798Z,1004.67
2016-05-27T11:49:31.817Z,1004.64
2016-05-27T11:50:31.850Z,1004.65
2016-05-27T11:51:31.885Z,1004.64
2016-05-27T11:52:31.919Z,1004.61
2016-05-27T11:53:31.936Z,1004.58
2016-05-27T11:54:31.971Z,1004.57
2016-05-27T11:55:32.020Z,1004.55
2016-05-27T11:56:32.038Z,1004.56
2016-05-27T11:57:32.057Z,1004.58
2016-05-27T11:58:32.107Z,1004.57
2016-05-27T11:59:32.124Z,1004.53
2016-05-27T12:00:32.144Z,1004.55
2016-05-27T12:01:32.177Z,1004.55
2016-05-27T12:02:32.211Z,1004.54
2016-05-27T12:03:32.245Z,1004.56
2016-05-27T12:04:32.279Z,1004.55
2016-05-27T12:05:32.297Z,1004.57
2016-05-27T12:06:32.332Z,1004.57
2016-05-27T12:07:32.365Z,1004.63
2016-05-27T12:08:32.399Z,1004.62